sensor_id;sensor_type;location;lat;lon;timestamp;temperature;humidity
24632;DHT22;59977;48.782;9.190;2023-04-22T00:00:48;15.60;99.90
24632;DHT22;59977;48.782;9.190;2023-04-22T00:03:13;15.00;99.90
24632;DHT22;59977;48.782;9.190;2023-04-22T00:05:40;14.90;99.90
24632;DHT22;59977;48.782;9.190;2023-04-22T00:08:06;14.90;99.90
24632;DHT22;59977;48.782;9.190;2023-04-22T00:10:32;15.50;99.90
24632;DHT22;59977;48.782;9.190;2023-04-22T00:12:58;15.40;99.90
24632;DHT22;59977;48.782;9.190;2023-04-22T00:15:23;15.00;99.90
24632;DHT22;59977;48.782;9.190;2023-04-22T00:17:51;14.70;99.90
24632;DHT22;59977;48.782;9.190;2023-04-22T00:20:19;14.70;99.90
24632;DHT22;59977;48.782;9.190;2023-04-22T00:22:46;14.80;99.90
24632;DHT22;59977;48.782;9.190;2023-04-22T00:25:12;15.00;99.90
24632;DHT22;59977;48.782;9.190;2023-04-22T00:27:37;14.70;99.90
24632;DHT22;59977;48.782;9.190;2023-04-22T00:30:04;14.60;99.90
24632;DHT22;59977;48.782;9.190;2023-04-22T00:32:30;14.60;99.90
24632;DHT22;59977;48.782;9.190;2023-04-22T00:34:55;14.60;99.90
24632;DHT22;59977;48.782;9.190;2023-04-22T00:37:22;14.50;99.90
24632;DHT22;59977;48.782;9.190;2023-04-22T00:39:48;14.60;99.90
24632;DHT22;59977;48.782;9.190;2023-04-22T00:42:15;14.50;99.90
24632;DHT22;59977;48.782;9.190;2023-04-22T00:44:41;14.50;99.90
24632;DHT22;59977;48.782;9.190;2023-04-22T00:47:08;14.60;99.90
24632;DHT22;59977;48.782;9.190;2023-04-22T00:49:34;14.70;99.90
24632;DHT22;59977;48.782;9.190;2023-04-22T00:52:00;14.60;99.90
24632;DHT22;59977;48.782;9.190;2023-04-22T00:54:26;14.90;99.90
24632;DHT22;59977;48.782;9.190;2023-04-22T00:56:53;14.70;99.90
24632;DHT22;59977;48.782;9.190;2023-04-22T00:59:20;14.50;99.90
24632;DHT22;59977;48.782;9.190;2023-04-22T01:01:47;14.50;99.90
24632;DHT22;59977;48.782;9.190;2023-04-22T01:04:13;15.30;99.90
24632;DHT22;59977;48.782;9.190;2023-04-22T01:06:40;14.50;99.90
24632;DHT22;59977;48.782;9.190;2023-04-22T01:09:07;15.90;99.90
24632;DHT22;59977;48.782;9.190;2023-04-22T01:11:34;15.10;99.90
24632;DHT22;59977;48.782;9.190;2023-04-22T01:14:01;14.70;99.90
24632;DHT22;59977;48.782;9.190;2023-04-22T01:16:27;14.50;99.90
24632;DHT22;59977;48.782;9.190;2023-04-22T01:18:53;14.50;99.90
24632;DHT22;59977;48.782;9.190;2023-04-22T01:21:19;14.50;99.90
24632;DHT22;59977;48.782;9.190;2023-04-22T01:23:45;14.60;99.90
24632;DHT22;59977;48.782;9.190;2023-04-22T01:26:11;14.50;99.90
24632;DHT22;59977;48.782;9.190;2023-04-22T01:28:37;14.40;99.90
24632;DHT22;59977;48.782;9.190;2023-04-22T01:31:03;14.40;99.90
24632;DHT22;59977;48.782;9.190;2023-04-22T01:33:29;14.40;99.90
24632;DHT22;59977;48.782;9.190;2023-04-22T01:35:55;14.30;99.90
24632;DHT22;59977;48.782;9.190;2023-04-22T01:38:20;14.30;99.90
24632;DHT22;59977;48.782;9.190;2023-04-22T01:40:46;16.00;99.90
24632;DHT22;59977;48.782;9.190;2023-04-22T01:43:11;14.30;99.90
24632;DHT22;59977;48.782;9.190;2023-04-22T01:45:37;15.60;99.90
24632;DHT22;59977;48.782;9.190;2023-04-22T01:48:03;14.20;99.90
24632;DHT22;59977;48.782;9.190;2023-04-22T01:50:31;14.20;99.90
24632;DHT22;59977;48.782;9.190;2023-04-22T01:52:57;14.20;99.90
24632;DHT22;59977;48.782;9.190;2023-04-22T01:55:23;14.70;99.90
24632;DHT22;59977;48.782;9.190;2023-04-22T01:57:49;14.40;99.90
24632;DHT22;59977;48.782;9.190;2023-04-22T02:00:15;14.90;99.90
24632;DHT22;59977;48.782;9.190;2023-04-22T02:02:40;14.20;99.90
24632;DHT22;59977;48.782;9.190;2023-04-22T02:05:06;14.40;99.90
24632;DHT22;59977;48.782;9.190;2023-04-22T02:07:32;14.20;99.90
24632;DHT22;59977;48.782;9.190;2023-04-22T02:09:58;14.20;99.90
24632;DHT22;59977;48.782;9.190;2023-04-22T02:12:23;15.40;99.90
24632;DHT22;59977;48.782;9.190;2023-04-22T02:14:49;14.40;99.90
24632;DHT22;59977;48.782;9.190;2023-04-22T02:17:15;14.20;99.90
24632;DHT22;59977;48.782;9.190;2023-04-22T02:19:42;14.20;99.90
24632;DHT22;59977;48.782;9.190;2023-04-22T02:22:08;14.20;99.90
24632;DHT22;59977;48.782;9.190;2023-04-22T02:24:33;15.20;99.90
24632;DHT22;59977;48.782;9.190;2023-04-22T02:26:59;14.20;99.90
24632;DHT22;59977;48.782;9.190;2023-04-22T02:29:25;15.70;99.90
24632;DHT22;59977;48.782;9.190;2023-04-22T02:31:51;15.70;99.90
24632;DHT22;59977;48.782;9.190;2023-04-22T02:34:17;15.00;99.90
24632;DHT22;59977;48.782;9.190;2023-04-22T02:36:42;14.10;99.90
24632;DHT22;59977;48.782;9.190;2023-04-22T02:39:08;14.10;99.90
24632;DHT22;59977;48.782;9.190;2023-04-22T02:41:34;16.10;99.90
24632;DHT22;59977;48.782;9.190;2023-04-22T02:43:59;14.10;99.90
24632;DHT22;59977;48.782;9.190;2023-04-22T02:46:25;14.60;99.90
24632;DHT22;59977;48.782;9.190;2023-04-22T02:48:51;14.10;99.90
24632;DHT22;59977;48.782;9.190;2023-04-22T02:51:16;14.00;99.90
24632;DHT22;59977;48.782;9.190;2023-04-22T02:53:42;14.80;99.90
24632;DHT22;59977;48.782;9.190;2023-04-22T02:56:08;13.70;99.90
24632;DHT22;59977;48.782;9.190;2023-04-22T02:58:33;13.70;99.90
24632;DHT22;59977;48.782;9.190;2023-04-22T03:00:59;13.90;99.90
24632;DHT22;59977;48.782;9.190;2023-04-22T03:03:25;15.00;99.90
24632;DHT22;59977;48.782;9.190;2023-04-22T03:05:50;14.90;99.90
24632;DHT22;59977;48.782;9.190;2023-04-22T03:08:16;14.80;99.90
24632;DHT22;59977;48.782;9.190;2023-04-22T03:10:42;13.80;99.90
24632;DHT22;59977;48.782;9.190;2023-04-22T03:13:07;13.80;99.90
24632;DHT22;59977;48.782;9.190;2023-04-22T03:15:33;13.80;99.90
24632;DHT22;59977;48.782;9.190;2023-04-22T03:17:59;13.90;99.90
24632;DHT22;59977;48.782;9.190;2023-04-22T03:20:24;14.30;99.90
24632;DHT22;59977;48.782;9.190;2023-04-22T03:22:50;13.80;99.90
24632;DHT22;59977;48.782;9.190;2023-04-22T03:25:15;13.70;99.90
24632;DHT22;59977;48.782;9.190;2023-04-22T03:27:41;13.60;99.90
24632;DHT22;59977;48.782;9.190;2023-04-22T03:30:07;15.00;99.90
24632;DHT22;59977;48.782;9.190;2023-04-22T03:32:33;13.60;99.90
24632;DHT22;59977;48.782;9.190;2023-04-22T03:34:58;13.60;99.90
24632;DHT22;59977;48.782;9.190;2023-04-22T03:37:25;13.60;99.90
24632;DHT22;59977;48.782;9.190;2023-04-22T03:39:50;14.90;99.90
24632;DHT22;59977;48.782;9.190;2023-04-22T03:42:16;13.50;99.90
24632;DHT22;59977;48.782;9.190;2023-04-22T03:44:41;13.60;99.90
24632;DHT22;59977;48.782;9.190;2023-04-22T03:47:07;13.60;99.90
24632;DHT22;59977;48.782;9.190;2023-04-22T03:49:33;13.60;99.90
24632;DHT22;59977;48.782;9.190;2023-04-22T03:51:58;13.40;99.90
24632;DHT22;59977;48.782;9.190;2023-04-22T03:54:25;13.40;99.90
24632;DHT22;59977;48.782;9.190;2023-04-22T03:56:51;14.20;99.90
24632;DHT22;59977;48.782;9.190;2023-04-22T03:59:17;13.40;99.90
24632;DHT22;59977;48.782;9.190;2023-04-22T04:01:44;13.60;99.90
24632;DHT22;59977;48.782;9.190;2023-04-22T04:04:09;13.40;99.90
24632;DHT22;59977;48.782;9.190;2023-04-22T04:06:35;13.60;99.90
24632;DHT22;59977;48.782;9.190;2023-04-22T04:09:01;13.30;99.90
24632;DHT22;59977;48.782;9.190;2023-04-22T04:11:26;13.20;99.90
24632;DHT22;59977;48.782;9.190;2023-04-22T04:13:52;13.10;99.90
24632;DHT22;59977;48.782;9.190;2023-04-22T04:16:17;13.10;99.90
24632;DHT22;59977;48.782;9.190;2023-04-22T04:18:43;13.20;99.90
24632;DHT22;59977;48.782;9.190;2023-04-22T04:21:09;13.10;99.90
24632;DHT22;59977;48.782;9.190;2023-04-22T04:23:34;13.30;99.90
24632;DHT22;59977;48.782;9.190;2023-04-22T04:26:00;13.00;99.90
24632;DHT22;59977;48.782;9.190;2023-04-22T04:28:27;13.90;99.90
24632;DHT22;59977;48.782;9.190;2023-04-22T04:30:57;13.10;99.90
24632;DHT22;59977;48.782;9.190;2023-04-22T04:33:22;13.10;99.90
24632;DHT22;59977;48.782;9.190;2023-04-22T04:38:16;13.00;99.90
24632;DHT22;59977;48.782;9.190;2023-04-22T04:40:41;13.30;99.90
24632;DHT22;59977;48.782;9.190;2023-04-22T04:43:08;12.60;99.90
24632;DHT22;59977;48.782;9.190;2023-04-22T04:45:34;13.90;99.90
24632;DHT22;59977;48.782;9.190;2023-04-22T04:48:01;13.20;99.90
24632;DHT22;59977;48.782;9.190;2023-04-22T04:50:27;13.50;99.90
24632;DHT22;59977;48.782;9.190;2023-04-22T04:52:53;12.50;99.90
24632;DHT22;59977;48.782;9.190;2023-04-22T04:55:19;13.90;99.90
24632;DHT22;59977;48.782;9.190;2023-04-22T04:57:45;13.50;99.90
24632;DHT22;59977;48.782;9.190;2023-04-22T05:00:11;13.10;99.90
24632;DHT22;59977;48.782;9.190;2023-04-22T05:02:39;13.20;99.90
24632;DHT22;59977;48.782;9.190;2023-04-22T05:05:05;13.30;99.90
24632;DHT22;59977;48.782;9.190;2023-04-22T05:07:31;13.30;99.90
24632;DHT22;59977;48.782;9.190;2023-04-22T05:09:56;13.60;99.90
24632;DHT22;59977;48.782;9.190;2023-04-22T05:12:22;13.10;99.90
24632;DHT22;59977;48.782;9.190;2023-04-22T05:14:48;13.30;99.90
24632;DHT22;59977;48.782;9.190;2023-04-22T05:19:49;13.30;99.90
24632;DHT22;59977;48.782;9.190;2023-04-22T05:22:14;13.40;99.90
24632;DHT22;59977;48.782;9.190;2023-04-22T05:24:40;13.40;99.90
24632;DHT22;59977;48.782;9.190;2023-04-22T05:27:06;15.90;99.90
24632;DHT22;59977;48.782;9.190;2023-04-22T05:29:32;14.00;99.90
24632;DHT22;59977;48.782;9.190;2023-04-22T05:35:10;13.40;99.90
24632;DHT22;59977;48.782;9.190;2023-04-22T05:37:36;13.40;99.90
24632;DHT22;59977;48.782;9.190;2023-04-22T05:40:02;13.40;99.90
24632;DHT22;59977;48.782;9.190;2023-04-22T05:42:39;13.30;99.90
24632;DHT22;59977;48.782;9.190;2023-04-22T05:49:09;11.80;99.90
24632;DHT22;59977;48.782;9.190;2023-04-22T05:51:34;15.30;99.90
24632;DHT22;59977;48.782;9.190;2023-04-22T05:54:27;13.30;99.90
24632;DHT22;59977;48.782;9.190;2023-04-22T05:57:00;13.50;99.90
24632;DHT22;59977;48.782;9.190;2023-04-22T05:59:29;15.60;99.90
24632;DHT22;59977;48.782;9.190;2023-04-22T06:01:55;13.60;99.90
24632;DHT22;59977;48.782;9.190;2023-04-22T06:04:27;13.60;99.90
24632;DHT22;59977;48.782;9.190;2023-04-22T06:06:52;13.70;99.90
24632;DHT22;59977;48.782;9.190;2023-04-22T06:09:19;13.80;99.90
24632;DHT22;59977;48.782;9.190;2023-04-22T06:11:45;16.00;99.90
24632;DHT22;59977;48.782;9.190;2023-04-22T06:14:11;15.80;99.90
24632;DHT22;59977;48.782;9.190;2023-04-22T06:19:36;13.00;99.90
24632;DHT22;59977;48.782;9.190;2023-04-22T06:22:02;15.40;99.90
24632;DHT22;59977;48.782;9.190;2023-04-22T06:24:32;14.10;99.90
24632;DHT22;59977;48.782;9.190;2023-04-22T06:27:01;14.10;99.90
24632;DHT22;59977;48.782;9.190;2023-04-22T06:29:29;13.50;99.90
24632;DHT22;59977;48.782;9.190;2023-04-22T06:31:58;16.40;99.90
24632;DHT22;59977;48.782;9.190;2023-04-22T06:34:24;15.40;99.90
24632;DHT22;59977;48.782;9.190;2023-04-22T06:36:49;16.20;99.90
24632;DHT22;59977;48.782;9.190;2023-04-22T06:39:17;16.60;99.90
24632;DHT22;59977;48.782;9.190;2023-04-22T06:41:43;14.30;99.90
24632;DHT22;59977;48.782;9.190;2023-04-22T06:44:09;14.40;99.90
24632;DHT22;59977;48.782;9.190;2023-04-22T06:46:34;16.80;99.90
24632;DHT22;59977;48.782;9.190;2023-04-22T06:49:00;16.00;99.90
24632;DHT22;59977;48.782;9.190;2023-04-22T06:51:26;14.90;99.90
24632;DHT22;59977;48.782;9.190;2023-04-22T06:53:51;15.50;99.90
24632;DHT22;59977;48.782;9.190;2023-04-22T06:56:17;15.10;99.90
24632;DHT22;59977;48.782;9.190;2023-04-22T06:58:43;14.20;99.90
24632;DHT22;59977;48.782;9.190;2023-04-22T07:01:08;16.40;99.90
24632;DHT22;59977;48.782;9.190;2023-04-22T07:03:34;14.40;99.90
24632;DHT22;59977;48.782;9.190;2023-04-22T07:06:00;13.30;99.90
24632;DHT22;59977;48.782;9.190;2023-04-22T07:08:25;14.50;99.90
24632;DHT22;59977;48.782;9.190;2023-04-22T07:10:51;16.60;99.90
24632;DHT22;59977;48.782;9.190;2023-04-22T07:13:17;14.70;99.90
24632;DHT22;59977;48.782;9.190;2023-04-22T07:15:42;16.30;99.90
24632;DHT22;59977;48.782;9.190;2023-04-22T07:18:10;15.50;99.90
24632;DHT22;59977;48.782;9.190;2023-04-22T07:20:36;16.40;99.90
24632;DHT22;59977;48.782;9.190;2023-04-22T07:23:02;16.50;99.90
24632;DHT22;59977;48.782;9.190;2023-04-22T07:25:27;17.70;99.90
24632;DHT22;59977;48.782;9.190;2023-04-22T07:27:53;15.00;99.90
24632;DHT22;59977;48.782;9.190;2023-04-22T07:30:19;15.00;99.90
24632;DHT22;59977;48.782;9.190;2023-04-22T07:32:45;16.80;99.90
24632;DHT22;59977;48.782;9.190;2023-04-22T07:35:10;15.00;99.90
24632;DHT22;59977;48.782;9.190;2023-04-22T07:37:36;16.20;99.90
24632;DHT22;59977;48.782;9.190;2023-04-22T07:40:01;15.30;99.90
24632;DHT22;59977;48.782;9.190;2023-04-22T07:42:27;15.30;99.90
24632;DHT22;59977;48.782;9.190;2023-04-22T07:44:53;15.50;99.90
24632;DHT22;59977;48.782;9.190;2023-04-22T07:47:18;15.60;99.90
24632;DHT22;59977;48.782;9.190;2023-04-22T07:49:44;15.60;99.90
24632;DHT22;59977;48.782;9.190;2023-04-22T07:52:10;15.80;99.90
24632;DHT22;59977;48.782;9.190;2023-04-22T07:54:35;15.80;99.90
24632;DHT22;59977;48.782;9.190;2023-04-22T07:57:01;15.90;99.90
24632;DHT22;59977;48.782;9.190;2023-04-22T07:59:27;16.10;99.90
24632;DHT22;59977;48.782;9.190;2023-04-22T08:01:52;16.00;99.90
24632;DHT22;59977;48.782;9.190;2023-04-22T08:04:21;17.20;99.90
24632;DHT22;59977;48.782;9.190;2023-04-22T08:06:47;16.20;99.90
24632;DHT22;59977;48.782;9.190;2023-04-22T08:09:12;15.40;99.90
24632;DHT22;59977;48.782;9.190;2023-04-22T08:11:38;16.40;99.90
24632;DHT22;59977;48.782;9.190;2023-04-22T08:14:03;16.50;99.90
24632;DHT22;59977;48.782;9.190;2023-04-22T08:16:29;16.60;99.90
24632;DHT22;59977;48.782;9.190;2023-04-22T08:18:55;16.90;99.90
24632;DHT22;59977;48.782;9.190;2023-04-22T08:21:22;16.40;99.90
24632;DHT22;59977;48.782;9.190;2023-04-22T08:23:47;16.30;99.90
24632;DHT22;59977;48.782;9.190;2023-04-22T08:26:13;16.30;99.90
24632;DHT22;59977;48.782;9.190;2023-04-22T08:28:40;16.20;99.90
24632;DHT22;59977;48.782;9.190;2023-04-22T08:31:06;16.20;99.90
24632;DHT22;59977;48.782;9.190;2023-04-22T08:33:34;16.20;99.90
24632;DHT22;59977;48.782;9.190;2023-04-22T08:36:00;16.10;99.90
24632;DHT22;59977;48.782;9.190;2023-04-22T08:38:27;16.60;99.90
24632;DHT22;59977;48.782;9.190;2023-04-22T08:40:55;16.50;99.90
24632;DHT22;59977;48.782;9.190;2023-04-22T08:43:21;16.60;99.90
24632;DHT22;59977;48.782;9.190;2023-04-22T08:45:47;16.80;99.90
24632;DHT22;59977;48.782;9.190;2023-04-22T08:48:14;16.80;99.90
24632;DHT22;59977;48.782;9.190;2023-04-22T08:50:40;16.90;99.90
24632;DHT22;59977;48.782;9.190;2023-04-22T08:53:06;17.00;99.90
24632;DHT22;59977;48.782;9.190;2023-04-22T08:55:33;17.00;99.90
24632;DHT22;59977;48.782;9.190;2023-04-22T08:58:00;17.10;99.90
24632;DHT22;59977;48.782;9.190;2023-04-22T09:00:29;17.30;99.90
24632;DHT22;59977;48.782;9.190;2023-04-22T09:02:56;17.30;99.90
24632;DHT22;59977;48.782;9.190;2023-04-22T09:05:24;17.60;99.90
24632;DHT22;59977;48.782;9.190;2023-04-22T09:07:50;17.60;99.90
24632;DHT22;59977;48.782;9.190;2023-04-22T09:10:17;17.60;99.90
24632;DHT22;59977;48.782;9.190;2023-04-22T09:12:42;17.70;99.90
24632;DHT22;59977;48.782;9.190;2023-04-22T09:15:08;17.80;99.90
24632;DHT22;59977;48.782;9.190;2023-04-22T09:17:35;18.00;99.90
24632;DHT22;59977;48.782;9.190;2023-04-22T09:20:04;18.20;99.90
24632;DHT22;59977;48.782;9.190;2023-04-22T09:22:40;18.30;99.90
24632;DHT22;59977;48.782;9.190;2023-04-22T09:25:28;18.40;99.90
24632;DHT22;59977;48.782;9.190;2023-04-22T09:27:57;18.50;99.90
24632;DHT22;59977;48.782;9.190;2023-04-22T09:30:28;18.30;99.90
24632;DHT22;59977;48.782;9.190;2023-04-22T09:32:55;18.50;99.90
24632;DHT22;59977;48.782;9.190;2023-04-22T09:35:38;18.60;99.90
24632;DHT22;59977;48.782;9.190;2023-04-22T09:38:06;18.70;99.90
24632;DHT22;59977;48.782;9.190;2023-04-22T09:40:36;18.60;99.90
24632;DHT22;59977;48.782;9.190;2023-04-22T09:43:04;18.80;99.90
24632;DHT22;59977;48.782;9.190;2023-04-22T09:45:38;18.70;99.90
24632;DHT22;59977;48.782;9.190;2023-04-22T09:48:10;18.80;99.90
24632;DHT22;59977;48.782;9.190;2023-04-22T09:50:38;18.80;99.90
24632;DHT22;59977;48.782;9.190;2023-04-22T09:53:09;19.00;99.90
24632;DHT22;59977;48.782;9.190;2023-04-22T09:55:44;18.90;99.90
24632;DHT22;59977;48.782;9.190;2023-04-22T09:58:12;18.80;99.90
24632;DHT22;59977;48.782;9.190;2023-04-22T10:00:44;19.00;99.90
24632;DHT22;59977;48.782;9.190;2023-04-22T10:03:11;19.30;99.60
24632;DHT22;59977;48.782;9.190;2023-04-22T10:05:37;19.40;99.00
24632;DHT22;59977;48.782;9.190;2023-04-22T10:08:08;19.60;98.60
24632;DHT22;59977;48.782;9.190;2023-04-22T10:10:33;20.00;98.90
24632;DHT22;59977;48.782;9.190;2023-04-22T10:13:00;19.40;97.60
24632;DHT22;59977;48.782;9.190;2023-04-22T10:15:34;19.40;95.90
24632;DHT22;59977;48.782;9.190;2023-04-22T10:18:02;19.50;97.10
24632;DHT22;59977;48.782;9.190;2023-04-22T10:20:30;19.50;96.00
24632;DHT22;59977;48.782;9.190;2023-04-22T10:22:56;19.40;96.50
24632;DHT22;59977;48.782;9.190;2023-04-22T10:25:23;19.50;95.90
24632;DHT22;59977;48.782;9.190;2023-04-22T10:27:54;19.90;95.60
24632;DHT22;59977;48.782;9.190;2023-04-22T10:30:27;19.60;96.00
24632;DHT22;59977;48.782;9.190;2023-04-22T10:32:53;19.70;94.80
24632;DHT22;59977;48.782;9.190;2023-04-22T10:35:26;19.80;93.70
24632;DHT22;59977;48.782;9.190;2023-04-22T10:37:53;19.90;94.20
24632;DHT22;59977;48.782;9.190;2023-04-22T10:40:19;19.90;92.60
24632;DHT22;59977;48.782;9.190;2023-04-22T10:42:50;19.90;91.30
24632;DHT22;59977;48.782;9.190;2023-04-22T10:45:16;19.90;90.10
24632;DHT22;59977;48.782;9.190;2023-04-22T10:47:43;20.00;90.50
24632;DHT22;59977;48.782;9.190;2023-04-22T10:52:34;20.20;92.70
24632;DHT22;59977;48.782;9.190;2023-04-22T10:55:00;20.30;93.20
24632;DHT22;59977;48.782;9.190;2023-04-22T10:57:31;20.10;92.70
24632;DHT22;59977;48.782;9.190;2023-04-22T11:00:38;20.30;89.30
24632;DHT22;59977;48.782;9.190;2023-04-22T11:05:31;20.40;83.80
24632;DHT22;59977;48.782;9.190;2023-04-22T11:08:04;20.40;84.20
24632;DHT22;59977;48.782;9.190;2023-04-22T11:13:00;20.60;80.40
24632;DHT22;59977;48.782;9.190;2023-04-22T11:15:28;20.70;78.30
24632;DHT22;59977;48.782;9.190;2023-04-22T11:17:54;20.50;81.70
24632;DHT22;59977;48.782;9.190;2023-04-22T11:20:20;20.60;79.20
24632;DHT22;59977;48.782;9.190;2023-04-22T11:22:56;20.70;83.00
24632;DHT22;59977;48.782;9.190;2023-04-22T11:25:22;20.70;82.90
24632;DHT22;59977;48.782;9.190;2023-04-22T11:27:48;20.70;84.40
24632;DHT22;59977;48.782;9.190;2023-04-22T11:30:16;20.70;80.70
24632;DHT22;59977;48.782;9.190;2023-04-22T11:32:44;20.70;80.50
24632;DHT22;59977;48.782;9.190;2023-04-22T11:35:18;20.80;79.60
24632;DHT22;59977;48.782;9.190;2023-04-22T11:37:53;21.10;80.10
24632;DHT22;59977;48.782;9.190;2023-04-22T11:40:37;20.90;76.80
24632;DHT22;59977;48.782;9.190;2023-04-22T11:43:04;21.10;76.50
24632;DHT22;59977;48.782;9.190;2023-04-22T11:45:33;21.40;74.60
24632;DHT22;59977;48.782;9.190;2023-04-22T11:48:00;21.60;73.30
24632;DHT22;59977;48.782;9.190;2023-04-22T11:50:31;21.70;69.00
24632;DHT22;59977;48.782;9.190;2023-04-22T11:52:58;21.80;67.50
24632;DHT22;59977;48.782;9.190;2023-04-22T11:55:26;21.90;67.50
24632;DHT22;59977;48.782;9.190;2023-04-22T11:57:57;21.90;65.70
24632;DHT22;59977;48.782;9.190;2023-04-22T12:00:28;22.20;64.80
24632;DHT22;59977;48.782;9.190;2023-04-22T12:03:28;22.30;64.20
24632;DHT22;59977;48.782;9.190;2023-04-22T12:05:52;22.40;64.70
24632;DHT22;59977;48.782;9.190;2023-04-22T12:08:21;22.30;63.60
24632;DHT22;59977;48.782;9.190;2023-04-22T12:10:54;22.10;64.00
24632;DHT22;59977;48.782;9.190;2023-04-22T12:13:31;21.90;65.30
24632;DHT22;59977;48.782;9.190;2023-04-22T12:16:20;22.10;64.60
24632;DHT22;59977;48.782;9.190;2023-04-22T12:18:53;22.20;64.30
24632;DHT22;59977;48.782;9.190;2023-04-22T12:21:24;22.30;64.70
24632;DHT22;59977;48.782;9.190;2023-04-22T12:24:07;22.40;65.70
24632;DHT22;59977;48.782;9.190;2023-04-22T12:26:34;22.30;65.40
24632;DHT22;59977;48.782;9.190;2023-04-22T12:29:02;22.30;65.50
24632;DHT22;59977;48.782;9.190;2023-04-22T12:31:28;22.30;66.00
24632;DHT22;59977;48.782;9.190;2023-04-22T12:33:53;22.40;65.70
24632;DHT22;59977;48.782;9.190;2023-04-22T12:36:20;22.40;64.70
24632;DHT22;59977;48.782;9.190;2023-04-22T12:38:46;22.30;66.70
24632;DHT22;59977;48.782;9.190;2023-04-22T12:41:12;22.40;68.10
24632;DHT22;59977;48.782;9.190;2023-04-22T12:43:38;22.30;66.30
24632;DHT22;59977;48.782;9.190;2023-04-22T12:46:05;22.30;67.70
24632;DHT22;59977;48.782;9.190;2023-04-22T12:48:31;22.30;65.30
24632;DHT22;59977;48.782;9.190;2023-04-22T12:50:57;22.10;65.40
24632;DHT22;59977;48.782;9.190;2023-04-22T12:53:23;22.10;67.50
24632;DHT22;59977;48.782;9.190;2023-04-22T12:55:49;22.00;66.60
24632;DHT22;59977;48.782;9.190;2023-04-22T12:58:14;22.10;65.60
24632;DHT22;59977;48.782;9.190;2023-04-22T13:00:40;22.20;66.10
24632;DHT22;59977;48.782;9.190;2023-04-22T13:03:06;22.20;65.50
24632;DHT22;59977;48.782;9.190;2023-04-22T13:05:32;22.10;63.20
24632;DHT22;59977;48.782;9.190;2023-04-22T13:07:58;22.30;62.60
24632;DHT22;59977;48.782;9.190;2023-04-22T13:10:23;22.30;61.90
24632;DHT22;59977;48.782;9.190;2023-04-22T13:12:52;22.50;62.80
24632;DHT22;59977;48.782;9.190;2023-04-22T13:15:18;22.60;60.40
24632;DHT22;59977;48.782;9.190;2023-04-22T13:17:43;22.50;60.50
24632;DHT22;59977;48.782;9.190;2023-04-22T13:20:09;22.40;60.80
24632;DHT22;59977;48.782;9.190;2023-04-22T13:22:36;22.30;61.50
24632;DHT22;59977;48.782;9.190;2023-04-22T13:25:03;22.20;61.00
24632;DHT22;59977;48.782;9.190;2023-04-22T13:27:29;22.00;61.50
24632;DHT22;59977;48.782;9.190;2023-04-22T13:29:54;21.90;62.70
24632;DHT22;59977;48.782;9.190;2023-04-22T13:32:20;21.80;61.50
24632;DHT22;59977;48.782;9.190;2023-04-22T13:34:45;21.90;61.60
24632;DHT22;59977;48.782;9.190;2023-04-22T13:37:12;22.00;61.10
24632;DHT22;59977;48.782;9.190;2023-04-22T13:39:39;22.00;61.70
24632;DHT22;59977;48.782;9.190;2023-04-22T13:42:05;22.00;61.00
24632;DHT22;59977;48.782;9.190;2023-04-22T13:44:31;22.10;61.40
24632;DHT22;59977;48.782;9.190;2023-04-22T13:46:57;22.10;61.50
24632;DHT22;59977;48.782;9.190;2023-04-22T13:49:22;22.30;62.10
24632;DHT22;59977;48.782;9.190;2023-04-22T13:51:48;22.30;61.40
24632;DHT22;59977;48.782;9.190;2023-04-22T13:54:14;22.30;61.00
24632;DHT22;59977;48.782;9.190;2023-04-22T13:56:40;22.10;63.20
24632;DHT22;59977;48.782;9.190;2023-04-22T13:59:06;22.10;65.80
24632;DHT22;59977;48.782;9.190;2023-04-22T14:01:31;22.10;68.90
24632;DHT22;59977;48.782;9.190;2023-04-22T14:03:58;22.20;70.60
24632;DHT22;59977;48.782;9.190;2023-04-22T14:06:24;22.10;71.70
24632;DHT22;59977;48.782;9.190;2023-04-22T14:08:50;22.20;71.40
24632;DHT22;59977;48.782;9.190;2023-04-22T14:11:15;22.30;69.60
24632;DHT22;59977;48.782;9.190;2023-04-22T14:13:41;22.20;65.00
24632;DHT22;59977;48.782;9.190;2023-04-22T14:16:07;22.10;63.60
24632;DHT22;59977;48.782;9.190;2023-04-22T14:18:36;22.00;63.90
24632;DHT22;59977;48.782;9.190;2023-04-22T14:21:06;22.00;63.40
24632;DHT22;59977;48.782;9.190;2023-04-22T14:23:37;21.90;62.70
24632;DHT22;59977;48.782;9.190;2023-04-22T14:26:04;21.90;63.20
24632;DHT22;59977;48.782;9.190;2023-04-22T14:28:29;21.80;62.70
24632;DHT22;59977;48.782;9.190;2023-04-22T14:30:55;21.80;62.70
24632;DHT22;59977;48.782;9.190;2023-04-22T14:33:22;21.80;63.00
24632;DHT22;59977;48.782;9.190;2023-04-22T14:35:49;21.80;63.70
24632;DHT22;59977;48.782;9.190;2023-04-22T14:38:15;21.80;63.30
24632;DHT22;59977;48.782;9.190;2023-04-22T14:40:40;21.80;63.10
24632;DHT22;59977;48.782;9.190;2023-04-22T14:43:06;21.80;63.30
24632;DHT22;59977;48.782;9.190;2023-04-22T14:45:32;21.80;63.20
24632;DHT22;59977;48.782;9.190;2023-04-22T14:47:59;21.80;63.60
24632;DHT22;59977;48.782;9.190;2023-04-22T14:50:25;21.90;63.20
24632;DHT22;59977;48.782;9.190;2023-04-22T14:52:51;22.10;63.70
24632;DHT22;59977;48.782;9.190;2023-04-22T14:55:18;22.20;63.20
24632;DHT22;59977;48.782;9.190;2023-04-22T14:57:44;22.40;62.00
24632;DHT22;59977;48.782;9.190;2023-04-22T15:00:10;23.00;62.20
24632;DHT22;59977;48.782;9.190;2023-04-22T15:02:36;24.20;59.80
24632;DHT22;59977;48.782;9.190;2023-04-22T15:05:02;25.00;59.10
24632;DHT22;59977;48.782;9.190;2023-04-22T15:07:28;25.20;57.60
24632;DHT22;59977;48.782;9.190;2023-04-22T15:09:54;25.00;57.20
24632;DHT22;59977;48.782;9.190;2023-04-22T15:12:20;24.50;58.00
24632;DHT22;59977;48.782;9.190;2023-04-22T15:14:45;24.00;58.50
24632;DHT22;59977;48.782;9.190;2023-04-22T15:17:11;23.60;59.70
24632;DHT22;59977;48.782;9.190;2023-04-22T15:19:37;23.20;61.00
24632;DHT22;59977;48.782;9.190;2023-04-22T15:22:03;23.10;61.30
24632;DHT22;59977;48.782;9.190;2023-04-22T15:24:29;22.90;61.50
24632;DHT22;59977;48.782;9.190;2023-04-22T15:26:54;22.80;61.90
24632;DHT22;59977;48.782;9.190;2023-04-22T15:29:22;22.80;62.90
24632;DHT22;59977;48.782;9.190;2023-04-22T15:31:47;22.50;63.50
24632;DHT22;59977;48.782;9.190;2023-04-22T15:34:13;22.40;64.00
24632;DHT22;59977;48.782;9.190;2023-04-22T15:36:39;22.40;64.20
24632;DHT22;59977;48.782;9.190;2023-04-22T15:39:05;22.40;64.00
24632;DHT22;59977;48.782;9.190;2023-04-22T15:41:31;22.30;64.20
24632;DHT22;59977;48.782;9.190;2023-04-22T15:44:00;22.50;64.50
24632;DHT22;59977;48.782;9.190;2023-04-22T15:46:29;22.10;64.40
24632;DHT22;59977;48.782;9.190;2023-04-22T15:48:57;22.00;64.90
24632;DHT22;59977;48.782;9.190;2023-04-22T15:51:23;21.90;64.60